createdAt,value
2018-11-22T00:00:37.974Z,-1.29
2018-11-22T00:03:06.603Z,-1.30
2018-11-22T00:05:35.136Z,-1.34
2018-11-22T00:08:02.873Z,-1.29
2018-11-22T00:10:31.949Z,-1.26
2018-11-22T00:13:00.066Z,-1.26
2018-11-22T00:15:28.043Z,-1.23
2018-11-22T00:17:56.944Z,-1.19
2018-11-22T00:20:25.435Z,-1.25
2018-11-22T00:22:53.936Z,-1.24
2018-11-22T00:25:22.235Z,-1.22
2018-11-22T00:27:50.374Z,-1.23
2018-11-22T00:30:37.495Z,-1.25
2018-11-22T00:33:06.138Z,-1.23
2018-11-22T00:35:34.164Z,-1.27
2018-11-22T00:38:01.923Z,-1.29
2018-11-22T00:40:29.617Z,-1.22
2018-11-22T00:42:57.772Z,-1.29
2018-11-22T00:45:27.265Z,-1.32
2018-11-22T00:47:54.949Z,-1.32
2018-11-22T00:50:23.018Z,-1.25
2018-11-22T00:52:51.929Z,-1.29
2018-11-22T00:55:21.834Z,-1.26
2018-11-22T00:57:50.743Z,-1.16
2018-11-22T01:00:20.133Z,-1.19
2018-11-22T01:02:47.751Z,-1.23
2018-11-22T01:05:17.228Z,-1.23
2018-11-22T01:07:45.978Z,-1.28
2018-11-22T01:10:14.695Z,-1.24
2018-11-22T01:12:42.591Z,-1.22
2018-11-22T01:15:10.236Z,-1.26
2018-11-22T01:17:38.823Z,-1.22
2018-11-22T01:20:09.291Z,-1.29
2018-11-22T01:22:37.036Z,-1.29
2018-11-22T01:25:06.605Z,-1.32
2018-11-22T01:27:35.171Z,-1.31
2018-11-22T01:30:03.716Z,-1.30
2018-11-22T01:32:31.809Z,-1.32
2018-11-22T01:34:59.979Z,-1.25
2018-11-22T01:37:28.046Z,-1.31
2018-11-22T01:39:56.543Z,-1.28
2018-11-22T01:42:24.546Z,-1.20
2018-11-22T01:44:53.120Z,-1.16
2018-11-22T01:47:21.600Z,-1.17
2018-11-22T01:49:49.811Z,-1.20
2018-11-22T01:52:18.174Z,-1.12
2018-11-22T01:54:46.664Z,-1.13
2018-11-22T01:57:15.091Z,-1.17
2018-11-22T01:59:43.646Z,-1.12
2018-11-22T02:02:12.095Z,-1.13
2018-11-22T02:04:40.690Z,-1.12
2018-11-22T02:07:09.176Z,-1.14
2018-11-22T02:09:37.650Z,-1.11
2018-11-22T02:12:05.727Z,-1.06
2018-11-22T02:14:33.146Z,-1.06
2018-11-22T02:17:01.664Z,-1.12
2018-11-22T02:19:29.869Z,-1.13
2018-11-22T02:21:57.845Z,-1.20
2018-11-22T02:24:25.521Z,-1.10
2018-11-22T02:26:53.300Z,-1.18
2018-11-22T02:29:21.393Z,-1.16
2018-11-22T02:31:49.841Z,-1.20
2018-11-22T02:34:17.930Z,-1.30
2018-11-22T02:36:46.419Z,-1.29
2018-11-22T02:39:14.500Z,-1.31
2018-11-22T02:41:43.007Z,-1.39
2018-11-22T02:44:11.054Z,-1.44
2018-11-22T02:46:39.233Z,-1.37
2018-11-22T02:49:07.670Z,-1.33
2018-11-22T02:51:35.896Z,-1.29
2018-11-22T02:54:03.980Z,-1.32
2018-11-22T02:56:32.430Z,-1.36
2018-11-22T02:59:00.956Z,-1.24
2018-11-22T03:01:29.431Z,-1.26
2018-11-22T03:03:57.614Z,-1.36
2018-11-22T03:06:26.195Z,-1.42
2018-11-22T03:08:54.389Z,-1.44
2018-11-22T03:11:22.868Z,-1.38
2018-11-22T03:13:51.063Z,-1.45
2018-11-22T03:16:19.245Z,-1.49
2018-11-22T03:18:47.410Z,-1.44
2018-11-22T03:21:15.069Z,-1.50
2018-11-22T03:23:43.266Z,-1.43
2018-11-22T03:26:11.434Z,-1.42
2018-11-22T03:28:39.201Z,-1.36
2018-11-22T03:31:07.356Z,-1.38
2018-11-22T03:33:35.927Z,-1.35
2018-11-22T03:36:04.541Z,-1.31
2018-11-22T03:38:33.056Z,-1.33
2018-11-22T03:41:01.121Z,-1.34
2018-11-22T03:43:28.940Z,-1.41
2018-11-22T03:45:56.563Z,-1.43
2018-11-22T03:48:25.174Z,-1.41
2018-11-22T03:50:53.358Z,-1.38
2018-11-22T03:53:20.729Z,-1.43
2018-11-22T03:55:48.497Z,-1.39
2018-11-22T03:58:15.824Z,-1.37
2018-11-22T04:00:43.624Z,-1.27
2018-11-22T04:03:11.781Z,-1.23
2018-11-22T04:05:40.261Z,-1.30
2018-11-22T04:08:08.770Z,-1.32
2018-11-22T04:10:36.857Z,-1.36
2018-11-22T04:13:04.196Z,-1.32
2018-11-22T04:15:32.780Z,-1.29
2018-11-22T04:18:00.461Z,-1.27
2018-11-22T04:20:30.471Z,-1.34
2018-11-22T04:22:58.955Z,-1.38
2018-11-22T04:25:26.731Z,-1.33
2018-11-22T04:27:55.214Z,-1.36
2018-11-22T04:30:42.904Z,-1.38
2018-11-22T04:33:10.305Z,-1.34
2018-11-22T04:35:38.786Z,-1.29
2018-11-22T04:38:07.007Z,-1.28
2018-11-22T04:40:35.287Z,-1.28
2018-11-22T04:43:03.563Z,-1.22
2018-11-22T04:45:32.079Z,-1.19
2018-11-22T04:48:03.472Z,-1.28
2018-11-22T04:50:33.525Z,-1.33
2018-11-22T04:53:01.721Z,-1.36
2018-11-22T04:55:29.950Z,-1.27
2018-11-22T04:57:58.093Z,-1.27
2018-11-22T05:00:26.412Z,-1.34
2018-11-22T05:02:54.599Z,-1.34
2018-11-22T05:05:24.064Z,-1.35
2018-11-22T05:07:52.272Z,-1.36
2018-11-22T05:10:39.469Z,-1.29
2018-11-22T05:13:07.142Z,-1.19
2018-11-22T05:15:35.670Z,-1.24
2018-11-22T05:18:03.437Z,-1.27
2018-11-22T05:20:32.032Z,-1.31
2018-11-22T05:23:00.537Z,-1.18
2018-11-22T05:25:29.065Z,-1.13
2018-11-22T05:27:57.309Z,-1.18
2018-11-22T05:30:27.471Z,-1.20
2018-11-22T05:32:55.278Z,-1.23
2018-11-22T05:35:23.546Z,-1.19
2018-11-22T05:37:52.202Z,-1.22
2018-11-22T05:40:21.637Z,-1.25
2018-11-22T05:42:49.830Z,-1.15
2018-11-22T05:45:18.841Z,-1.08
2018-11-22T05:47:46.862Z,-1.14
2018-11-22T05:50:15.630Z,-1.11
2018-11-22T05:52:43.678Z,-1.06
2018-11-22T05:55:12.374Z,-1.06
2018-11-22T05:57:40.862Z,-1.15
2018-11-22T06:00:13.447Z,-1.14
2018-11-22T06:02:41.610Z,-1.16
2018-11-22T06:05:10.959Z,-1.14
2018-11-22T06:07:38.992Z,-1.13
2018-11-22T06:10:09.683Z,-1.15
2018-11-22T06:12:37.981Z,-1.11
2018-11-22T06:15:07.034Z,-1.13
2018-11-22T06:17:35.228Z,-1.10
2018-11-22T06:20:03.111Z,-1.16
2018-11-22T06:22:32.025Z,-1.10
2018-11-22T06:25:03.711Z,-1.14
2018-11-22T06:27:27.997Z,-1.27
2018-11-22T06:29:56.507Z,-1.31
2018-11-22T06:32:24.590Z,-1.33
2018-11-22T06:34:52.752Z,-1.36
2018-11-22T06:37:21.370Z,-1.40
2018-11-22T06:39:49.127Z,-1.38
2018-11-22T06:42:17.703Z,-1.36
2018-11-22T06:44:45.518Z,-1.21
2018-11-22T06:47:14.162Z,-1.18
2018-11-22T06:49:41.874Z,-1.20
2018-11-22T06:52:10.125Z,-1.16
2018-11-22T06:54:38.209Z,-1.12
2018-11-22T06:57:06.267Z,-1.14
2018-11-22T06:59:34.048Z,-1.08
2018-11-22T07:02:02.542Z,-1.05
2018-11-22T07:04:30.431Z,-1.04
2018-11-22T07:06:59.091Z,-0.98
2018-11-22T07:09:27.686Z,-0.89
2018-11-22T07:11:55.873Z,-0.85
2018-11-22T07:14:24.545Z,-0.83
2018-11-22T07:16:53.010Z,-0.76
2018-11-22T07:19:21.257Z,-0.65
2018-11-22T07:21:49.697Z,-0.59
2018-11-22T07:24:18.196Z,-0.64
2018-11-22T07:26:46.263Z,-0.66
2018-11-22T07:29:14.861Z,-0.69
2018-11-22T07:31:43.341Z,-0.71
2018-11-22T07:34:11.518Z,-0.60
2018-11-22T07:36:38.902Z,-0.58
2018-11-22T07:39:08.057Z,-0.53
2018-11-22T07:41:36.272Z,-0.51
2018-11-22T07:44:04.347Z,-0.50
2018-11-22T07:46:32.497Z,-0.47
2018-11-22T07:49:00.717Z,-0.41
2018-11-22T07:51:28.984Z,-0.37
2018-11-22T07:53:56.987Z,-0.35
2018-11-22T07:56:25.245Z,-0.30
2018-11-22T07:58:53.311Z,-0.28
2018-11-22T08:01:21.384Z,-0.19
2018-11-22T08:03:49.227Z,-0.23
2018-11-22T08:06:17.755Z,-0.13
2018-11-22T08:08:46.251Z,-0.12
2018-11-22T08:11:14.849Z,-0.11
2018-11-22T08:13:42.913Z,-0.07
2018-11-22T08:16:11.428Z,0.02
2018-11-22T08:18:40.096Z,0.11
2018-11-22T08:21:08.663Z,0.17
2018-11-22T08:23:37.161Z,0.17
2018-11-22T08:26:05.232Z,0.20
2018-11-22T08:28:33.726Z,0.23
2018-11-22T08:31:01.474Z,0.35
2018-11-22T08:33:29.881Z,0.40
2018-11-22T08:35:57.246Z,0.42
2018-11-22T08:38:25.831Z,0.45
2018-11-22T08:40:53.906Z,0.58
2018-11-22T08:43:21.953Z,0.55
2018-11-22T08:45:49.748Z,0.58
2018-11-22T08:48:17.858Z,0.64
2018-11-22T08:50:46.427Z,0.70
2018-11-22T08:53:14.916Z,0.85
2018-11-22T08:55:43.397Z,0.95
2018-11-22T08:58:11.055Z,1.07
2018-11-22T09:00:39.249Z,1.16
2018-11-22T09:03:06.512Z,1.21
2018-11-22T09:05:36.118Z,1.23
2018-11-22T09:08:04.302Z,1.37
2018-11-22T09:10:32.793Z,1.42
2018-11-22T09:13:01.897Z,1.45
2018-11-22T09:15:31.527Z,1.46
2018-11-22T09:17:58.782Z,1.46
2018-11-22T09:20:28.371Z,1.44
2018-11-22T09:22:56.473Z,1.48
2018-11-22T09:25:23.997Z,1.47
2018-11-22T09:27:51.682Z,1.56
2018-11-22T09:30:39.226Z,1.57
2018-11-22T09:33:07.695Z,1.63
2018-11-22T09:35:36.028Z,1.63
2018-11-22T09:38:04.549Z,1.72
2018-11-22T09:40:34.322Z,1.85
2018-11-22T09:43:02.574Z,1.89
2018-11-22T09:45:31.535Z,1.88
2018-11-22T09:47:59.630Z,1.90
2018-11-22T09:50:28.216Z,1.95
2018-11-22T09:53:00.179Z,1.99
2018-11-22T09:55:28.575Z,2.02
2018-11-22T09:57:56.615Z,2.10
2018-11-22T10:00:25.235Z,2.20
2018-11-22T10:02:52.708Z,2.49
2018-11-22T10:05:24.581Z,2.71
2018-11-22T10:07:52.805Z,2.88
2018-11-22T10:10:22.294Z,3.10
2018-11-22T10:12:50.448Z,3.11
2018-11-22T10:15:19.633Z,3.20
2018-11-22T10:17:47.297Z,3.28
2018-11-22T10:20:17.901Z,3.26
2018-11-22T10:22:46.741Z,3.24
2018-11-22T10:25:15.117Z,3.26
2018-11-22T10:27:43.301Z,3.20
2018-11-22T10:30:30.505Z,3.16
2018-11-22T10:32:59.922Z,3.39
2018-11-22T10:35:47.066Z,3.41
2018-11-22T10:38:15.217Z,3.51
2018-11-22T10:40:43.382Z,3.64
2018-11-22T10:43:11.458Z,3.75
2018-11-22T10:45:39.655Z,3.78
2018-11-22T10:48:09.467Z,3.99
2018-11-22T10:50:38.094Z,4.12
2018-11-22T10:53:06.049Z,4.11
2018-11-22T10:55:35.729Z,4.28
2018-11-22T10:58:03.973Z,4.36
2018-11-22T11:00:51.653Z,4.24
2018-11-22T11:03:39.211Z,4.23
2018-11-22T11:06:26.121Z,4.26
2018-11-22T11:08:54.762Z,4.32
2018-11-22T11:11:22.537Z,4.41
2018-11-22T11:13:50.712Z,4.53
2018-11-22T11:16:18.882Z,4.68
2018-11-22T11:18:47.403Z,4.80
2018-11-22T11:21:15.306Z,4.86
2018-11-22T11:23:43.902Z,5.10
2018-11-22T11:26:11.919Z,5.49
2018-11-22T11:28:40.515Z,6.02
2018-11-22T11:31:08.344Z,6.58
2018-11-22T11:33:36.366Z,6.85
2018-11-22T11:36:04.420Z,7.19
2018-11-22T11:38:32.913Z,7.23
2018-11-22T11:41:00.720Z,7.32
2018-11-22T11:43:28.032Z,7.23
2018-11-22T11:45:56.538Z,7.74
2018-11-22T11:48:24.985Z,7.76
2018-11-22T11:50:53.528Z,7.71
2018-11-22T11:53:27.106Z,7.80
2018-11-22T11:55:49.664Z,7.86
2018-11-22T11:58:17.337Z,8.17
2018-11-22T12:00:46.036Z,8.15
2018-11-22T12:03:14.207Z,8.15
2018-11-22T12:05:42.390Z,8.47
2018-11-22T12:08:11.089Z,8.57
2018-11-22T12:10:39.073Z,8.45
2018-11-22T12:13:07.339Z,8.48
2018-11-22T12:15:34.998Z,8.70
2018-11-22T12:18:02.667Z,8.73
2018-11-22T12:20:31.122Z,8.63
2018-11-22T12:22:59.448Z,8.65
2018-11-22T12:25:28.223Z,8.68
2018-11-22T12:27:57.340Z,8.57
2018-11-22T12:30:26.536Z,8.59
2018-11-22T12:33:13.826Z,8.69
2018-11-22T12:36:01.234Z,8.70
2018-11-22T12:38:47.938Z,8.67
2018-11-22T12:41:16.054Z,8.53
2018-11-22T12:43:43.837Z,8.44
2018-11-22T12:46:12.308Z,8.82
2018-11-22T12:48:41.277Z,9.35
2018-11-22T12:51:09.467Z,9.72
2018-11-22T12:53:37.966Z,10.02
2018-11-22T12:56:05.757Z,10.44
2018-11-22T12:58:33.841Z,10.57
2018-11-22T13:01:02.209Z,10.49
2018-11-22T13:03:30.671Z,10.18
2018-11-22T13:05:58.872Z,9.96
2018-11-22T13:08:27.071Z,9.88
2018-11-22T13:10:55.292Z,9.90
2018-11-22T13:13:23.389Z,9.65
2018-11-22T13:15:51.495Z,9.73
2018-11-22T13:18:19.959Z,9.63
2018-11-22T13:20:47.750Z,9.77
2018-11-22T13:23:16.334Z,9.93
2018-11-22T13:25:44.848Z,10.43
2018-11-22T13:28:12.898Z,10.19
2018-11-22T13:30:40.570Z,10.00
2018-11-22T13:33:08.748Z,9.86
2018-11-22T13:35:37.250Z,9.70
2018-11-22T13:38:05.000Z,9.70
2018-11-22T13:40:33.078Z,9.99
2018-11-22T13:43:01.554Z,10.74
2018-11-22T13:45:30.011Z,11.15
2018-11-22T13:47:58.744Z,11.27
2018-11-22T13:50:28.125Z,11.29
2018-11-22T13:53:20.475Z,11.28
2018-11-22T13:55:43.252Z,11.29
2018-11-22T13:58:11.759Z,11.01
2018-11-22T14:00:39.896Z,10.83
2018-11-22T14:03:08.404Z,10.55
2018-11-22T14:05:36.971Z,10.28
2018-11-22T14:08:04.651Z,10.26
2018-11-22T14:10:32.748Z,10.04
2018-11-22T14:13:01.181Z,9.52
2018-11-22T14:15:32.738Z,9.41
2018-11-22T14:18:19.503Z,9.63
2018-11-22T14:20:47.563Z,9.50
2018-11-22T14:23:16.018Z,9.09
2018-11-22T14:25:49.003Z,8.50
2018-11-22T14:28:13.019Z,7.92
2018-11-22T14:30:40.414Z,7.54
2018-11-22T14:33:08.260Z,7.25
2018-11-22T14:35:35.595Z,6.91
2018-11-22T14:38:03.037Z,6.59
2018-11-22T14:40:32.441Z,6.23
2018-11-22T14:43:00.950Z,6.02
2018-11-22T14:45:29.134Z,5.96
2018-11-22T14:47:58.211Z,5.95
2018-11-22T14:50:31.151Z,5.94
2018-11-22T14:53:21.293Z,5.89
2018-11-22T14:55:49.235Z,5.83
2018-11-22T14:58:17.012Z,5.90
2018-11-22T15:00:44.922Z,6.06
2018-11-22T15:03:13.500Z,6.03
2018-11-22T15:05:41.976Z,5.88
2018-11-22T15:08:29.079Z,5.64
2018-11-22T15:10:57.214Z,5.40
2018-11-22T15:13:25.681Z,5.08
2018-11-22T15:15:54.173Z,4.85
2018-11-22T15:18:22.367Z,4.66
2018-11-22T15:20:50.034Z,4.53
2018-11-22T15:23:18.335Z,4.30
2018-11-22T15:25:46.485Z,4.07
2018-11-22T15:28:14.654Z,3.84
2018-11-22T15:30:42.429Z,3.61
2018-11-22T15:33:10.538Z,3.38
2018-11-22T15:35:38.671Z,3.20
2018-11-22T15:38:06.566Z,3.02
2018-11-22T15:40:34.752Z,2.86
2018-11-22T15:43:03.457Z,2.71
2018-11-22T15:45:35.229Z,2.56
2018-11-22T15:48:00.235Z,2.44
2018-11-22T15:50:28.872Z,2.27
2018-11-22T15:52:57.497Z,2.13
2018-11-22T15:55:26.245Z,2.02
2018-11-22T15:57:56.299Z,1.94
2018-11-22T16:00:28.574Z,1.85
2018-11-22T16:02:57.649Z,1.74
2018-11-22T16:05:26.443Z,1.62
2018-11-22T16:07:54.542Z,1.49
2018-11-22T16:10:26.907Z,1.40
2018-11-22T16:13:12.755Z,1.24
2018-11-22T16:15:59.915Z,1.13
2018-11-22T16:18:27.434Z,0.98
2018-11-22T16:20:55.566Z,0.87
2018-11-22T16:23:23.614Z,0.78
2018-11-22T16:25:51.796Z,0.72
2018-11-22T16:28:19.549Z,0.69
2018-11-22T16:30:47.680Z,0.61
2018-11-22T16:33:15.728Z,0.52
2018-11-22T16:35:44.275Z,0.45
2018-11-22T16:38:12.430Z,0.40
2018-11-22T16:40:40.983Z,0.33
2018-11-22T16:43:08.655Z,0.21
2018-11-22T16:45:37.448Z,0.16
2018-11-22T16:48:07.636Z,0.11
2018-11-22T16:50:37.249Z,0.11
2018-11-22T16:53:05.996Z,0.06
2018-11-22T16:55:34.051Z,0.01
2018-11-22T16:58:02.673Z,-0.07
2018-11-22T17:00:34.199Z,-0.17
2018-11-22T17:03:03.607Z,-0.15
2018-11-22T17:05:32.405Z,-0.11
2018-11-22T17:08:01.211Z,-0.01
2018-11-22T17:10:30.525Z,0.06
2018-11-22T17:12:59.300Z,0.14
2018-11-22T17:15:28.993Z,0.25
2018-11-22T17:17:57.889Z,0.26
2018-11-22T17:20:27.150Z,0.19
2018-11-22T17:22:55.295Z,0.07
2018-11-22T17:25:25.108Z,-0.05
2018-11-22T17:27:55.225Z,-0.09
2018-11-22T17:30:25.560Z,-0.18
2018-11-22T17:32:54.115Z,-0.21
2018-11-22T17:35:23.358Z,-0.27
2018-11-22T17:37:52.794Z,-0.31
2018-11-22T17:40:39.773Z,-0.42
2018-11-22T17:43:08.028Z,-0.35
2018-11-22T17:45:37.568Z,-0.52
2018-11-22T17:48:06.043Z,-0.58
2018-11-22T17:50:35.272Z,-0.67
2018-11-22T17:53:03.890Z,-0.70
2018-11-22T17:55:32.414Z,-0.69
2018-11-22T17:58:00.273Z,-0.70
2018-11-22T18:00:32.710Z,-0.55
2018-11-22T18:03:02.275Z,-0.59
2018-11-22T18:05:30.480Z,-0.61
2018-11-22T18:07:58.618Z,-0.68
2018-11-22T18:10:28.465Z,-0.78
2018-11-22T18:12:57.462Z,-0.87
2018-11-22T18:15:26.069Z,-0.92
2018-11-22T18:17:54.130Z,-0.88
2018-11-22T18:20:26.518Z,-0.72
2018-11-22T18:22:56.129Z,-0.76
2018-11-22T18:25:25.718Z,-0.76
2018-11-22T18:27:54.041Z,-0.79
2018-11-22T18:30:23.106Z,-0.63
2018-11-22T18:33:10.411Z,-0.64
2018-11-22T18:35:38.983Z,-0.67
2018-11-22T18:38:07.309Z,-0.64
2018-11-22T18:40:37.430Z,-0.61
2018-11-22T18:43:05.821Z,-0.56
2018-11-22T18:45:35.517Z,-0.57
2018-11-22T18:48:04.469Z,-0.55
2018-11-22T18:50:59.448Z,-0.51
2018-11-22T18:53:28.020Z,-0.44
2018-11-22T18:55:56.076Z,-0.39
2018-11-22T18:58:24.069Z,-0.42
2018-11-22T19:00:51.435Z,-0.50
2018-11-22T19:03:19.904Z,-0.50
2018-11-22T19:05:48.279Z,-0.47
2018-11-22T19:08:15.945Z,-0.41
2018-11-22T19:10:44.432Z,-0.32
2018-11-22T19:13:13.030Z,-0.30
2018-11-22T19:15:42.960Z,-0.30
2018-11-22T19:18:12.088Z,-0.27
2018-11-22T19:20:41.059Z,-0.24
2018-11-22T19:23:09.336Z,-0.30
2018-11-22T19:25:37.093Z,-0.35
2018-11-22T19:28:05.459Z,-0.39
2018-11-22T19:30:52.996Z,-0.31
2018-11-22T19:33:21.108Z,-0.25
2018-11-22T19:35:56.631Z,-0.47
2018-11-22T19:38:25.215Z,-0.54
2018-11-22T19:40:53.809Z,-0.57
2018-11-22T19:43:22.265Z,-0.66
2018-11-22T19:45:49.851Z,-0.70
2018-11-22T19:48:18.026Z,-0.73
2018-11-22T19:50:46.523Z,-0.75
2018-11-22T19:53:15.525Z,-0.78
2018-11-22T19:55:43.395Z,-0.67
2018-11-22T19:58:12.529Z,-0.62
2018-11-22T20:00:40.780Z,-0.69
2018-11-22T20:03:09.864Z,-0.70
2018-11-22T20:05:39.597Z,-0.72
2018-11-22T20:08:08.917Z,-0.73
2018-11-22T20:10:38.475Z,-0.80
2018-11-22T20:13:06.579Z,-0.84
2018-11-22T20:15:35.254Z,-0.86
2018-11-22T20:18:04.264Z,-0.90
2018-11-22T20:20:32.778Z,-1.05
2018-11-22T20:23:01.065Z,-1.09
2018-11-22T20:25:29.040Z,-1.06
2018-11-22T20:27:57.228Z,-1.03
2018-11-22T20:30:29.711Z,-1.17
2018-11-22T20:32:58.299Z,-1.25
2018-11-22T20:35:26.343Z,-1.24
2018-11-22T20:37:54.733Z,-1.13
2018-11-22T20:40:23.943Z,-1.13
2018-11-22T20:42:52.013Z,-1.23
2018-11-22T20:45:21.001Z,-1.24
2018-11-22T20:47:50.604Z,-1.34
2018-11-22T20:50:20.007Z,-1.44
2018-11-22T20:52:48.210Z,-1.45
2018-11-22T20:55:18.416Z,-1.38
2018-11-22T20:57:47.766Z,-1.44
2018-11-22T21:00:17.226Z,-1.42
2018-11-22T21:02:45.260Z,-1.43
2018-11-22T21:05:13.708Z,-1.48
2018-11-22T21:07:42.139Z,-1.55
2018-11-22T21:10:30.059Z,-1.60
2018-11-22T21:12:58.228Z,-1.61
2018-11-22T21:15:45.581Z,-1.70
2018-11-22T21:18:14.233Z,-1.76
2018-11-22T21:20:42.396Z,-1.87
2018-11-22T21:23:10.190Z,-1.91
2018-11-22T21:25:37.832Z,-1.87
2018-11-22T21:28:06.101Z,-1.90
2018-11-22T21:30:35.835Z,-1.84
2018-11-22T21:33:03.604Z,-1.82
2018-11-22T21:35:32.191Z,-1.80
2018-11-22T21:38:01.412Z,-1.84
2018-11-22T21:40:30.203Z,-1.90
2018-11-22T21:42:58.260Z,-1.94
2018-11-22T21:45:27.101Z,-2.00
2018-11-22T21:47:54.827Z,-2.04
2018-11-22T21:50:24.129Z,-2.09
2018-11-22T21:52:52.332Z,-2.13
2018-11-22T21:55:22.080Z,-2.11
2018-11-22T21:57:50.209Z,-2.00
2018-11-22T22:00:30.364Z,-2.02
2018-11-22T22:03:00.179Z,-2.08
2018-11-22T22:05:28.345Z,-2.14
2018-11-22T22:07:56.549Z,-2.11
2018-11-22T22:10:24.650Z,-2.14
2018-11-22T22:12:52.683Z,-2.17
2018-11-22T22:15:22.284Z,-2.21
2018-11-22T22:17:50.302Z,-2.25
2018-11-22T22:20:38.686Z,-2.24
2018-11-22T22:23:13.279Z,-2.29
2018-11-22T22:25:35.410Z,-2.35
2018-11-22T22:28:03.765Z,-2.39
2018-11-22T22:30:32.487Z,-2.31
2018-11-22T22:33:02.234Z,-2.43
2018-11-22T22:35:29.541Z,-2.42
2018-11-22T22:37:57.299Z,-2.21
2018-11-22T22:40:26.031Z,-2.18
2018-11-22T22:42:55.508Z,-2.19
2018-11-22T22:45:24.671Z,-2.14
2018-11-22T22:47:53.431Z,-2.24
2018-11-22T22:50:22.969Z,-2.27
2018-11-22T22:52:52.378Z,-2.25
2018-11-22T22:55:20.115Z,-2.27
2018-11-22T22:57:47.437Z,-2.32
2018-11-22T23:00:53.682Z,-2.33
2018-11-22T23:03:22.200Z,-2.27
2018-11-22T23:05:49.560Z,-2.25
2018-11-22T23:08:17.205Z,-2.26
2018-11-22T23:10:45.314Z,-2.17
2018-11-22T23:13:13.795Z,-2.10
2018-11-22T23:15:41.973Z,-1.97
2018-11-22T23:18:10.051Z,-2.06
2018-11-22T23:20:38.574Z,-2.19
2018-11-22T23:23:06.791Z,-2.28
2018-11-22T23:25:35.282Z,-2.37
2018-11-22T23:28:03.411Z,-2.42
2018-11-22T23:30:32.578Z,-2.24
2018-11-22T23:33:01.698Z,-2.04
2018-11-22T23:35:29.745Z,-2.16
2018-11-22T23:37:58.317Z,-2.10
2018-11-22T23:40:27.296Z,-2.13
2018-11-22T23:42:55.409Z,-2.24
2018-11-22T23:45:28.292Z,-2.28
2018-11-22T23:47:57.148Z,-2.31
2018-11-22T23:50:25.925Z,-2.40
2018-11-22T23:52:55.479Z,-2.19
2018-11-22T23:55:23.191Z,-2.19
2018-11-22T23:57:51.037Z,-2.38
